Time;durP1;ratioP1;P1;durP2;ratioP2;P2;SDS_P1;SDS_P2;PMS_P1;PMS_P2;Temp;Humidity;BMP_temperature;BMP_pressure;BME280_temperature;BME280_humidity;BME280_pressure;Samples;Min_cycle;Max_cycle;Signal;HPM_P1;HPM_P2
2022/10/25 00:01:30;;;;;;;12.25;2.83;;;;;;;12.40;100.00;101106.22;5114622;28;20023;-85
2022/10/25 00:03:56;;;;;;;11.82;2.60;;;;;;;12.40;100.00;101106.22;5114558;28;20046;-86
2022/10/25 00:06:22;;;;;;;12.65;3.10;;;;;;;12.39;100.00;101109.88;5115266;27;20016;-87
2022/10/25 00:08:48;;;;;;;15.63;2.90;;;;;;;12.37;100.00;101115.31;5114587;28;20378;-86
2022/10/25 00:11:19;;;;;;;11.10;2.65;;;;;;;12.37;100.00;101114.44;5109732;28;20063;-86
2022/10/25 00:13:44;;;;;;;13.68;2.70;;;;;;;12.36;100.00;101110.94;5102797;28;20565;-86
2022/10/25 00:16:15;;;;;;;11.57;2.47;;;;;;;12.41;100.00;101115.91;5111176;27;20048;-85
2022/10/25 00:18:40;;;;;;;9.85;2.75;;;;;;;12.43;100.00;101123.78;5107653;28;20032;-85
2022/10/25 00:21:06;;;;;;;8.55;2.60;;;;;;;12.46;100.00;101104.88;5113322;28;20088;-85
2022/10/25 00:23:31;;;;;;;9.30;2.60;;;;;;;12.46;100.00;101111.06;5113152;28;20450;-85
2022/10/25 00:26:01;;;;;;;12.68;3.00;;;;;;;12.47;100.00;101120.72;5102293;27;20045;-86
2022/10/25 00:28:26;;;;;;;11.75;2.80;;;;;;;12.50;100.00;101122.31;5102590;28;20023;-86
2022/10/25 00:31:02;;;;;;;15.00;3.08;;;;;;;12.49;100.00;101124.13;5087035;28;20030;-86
2022/10/25 00:33:32;;;;;;;9.15;2.83;;;;;;;12.51;100.00;101116.84;5112728;28;20031;-86
2022/10/25 00:36:08;;;;;;;11.75;2.60;;;;;;;12.51;100.00;101124.84;5104898;28;20463;-86
2022/10/25 00:38:34;;;;;;;13.23;2.50;;;;;;;12.52;100.00;101129.22;5112138;27;20112;-85
2022/10/25 00:41:00;;;;;;;13.48;3.00;;;;;;;12.55;100.00;101125.44;5113499;28;20031;-86
2022/10/25 00:43:37;;;;;;;8.93;2.50;;;;;;;12.57;100.00;101120.84;5101073;28;20030;-86
2022/10/25 00:46:09;;;;;;;12.07;3.10;;;;;;;12.59;100.00;101121.59;5110354;27;20043;-86
2022/10/25 00:48:35;;;;;;;12.43;2.25;;;;;;;12.56;100.00;101117.34;5143320;22;20052;-56
2022/10/25 00:51:01;;;;;;;16.70;2.78;;;;;;;12.61;100.00;101127.63;5089393;28;20492;-55
2022/10/25 00:53:32;;;;;;;15.90;3.15;;;;;;;12.61;100.00;101122.28;5085425;28;20054;-56
2022/10/25 00:56:23;;;;;;;16.33;2.95;;;;;;;12.63;100.00;101130.16;5092540;28;20059;-55
2022/10/25 00:58:54;;;;;;;13.25;2.40;;;;;;;12.62;100.00;101126.63;5082430;28;20028;-55
2022/10/25 01:01:20;;;;;;;11.80;2.60;;;;;;;12.62;100.00;101121.31;5091216;28;20077;-56
2022/10/25 01:03:50;;;;;;;15.10;2.80;;;;;;;12.61;100.00;101129.41;5091733;28;20035;-55
2022/10/25 01:06:26;;;;;;;12.88;2.45;;;;;;;12.62;100.00;101129.28;5092067;28;20054;-55
2022/10/25 01:08:53;;;;;;;11.93;2.85;;;;;;;12.61;100.00;101132.94;5091409;28;20063;-55
2022/10/25 01:11:19;;;;;;;13.77;2.20;;;;;;;12.61;100.00;101140.06;5091966;28;20097;-55
2022/10/25 01:13:46;;;;;;;11.70;2.85;;;;;;;12.58;100.00;101131.38;5074705;28;20025;-56
2022/10/25 01:16:33;;;;;;;14.85;2.45;;;;;;;12.59;100.00;101146.41;5073211;28;20089;-56
2022/10/25 01:19:09;;;;;;;15.75;3.33;;;;;;;12.58;100.00;101138.53;5091450;28;20071;-56
2022/10/25 01:21:50;;;;;;;14.98;2.78;;;;;;;12.56;100.00;101143.13;5074772;28;20029;-56
2022/10/25 01:24:52;;;;;;;13.00;3.35;;;;;;;12.56;100.00;101153.78;5080220;28;20036;-55
2022/10/25 01:27:54;;;;;;;10.65;2.90;;;;;;;12.55;100.00;101144.94;5076699;28;20033;-55
2022/10/25 01:30:23;;;;;;;14.77;2.85;;;;;;;12.51;100.00;101154.16;5082978;28;20454;-56
2022/10/25 01:33:13;;;;;;;12.10;2.65;;;;;;;12.54;100.00;101151.25;5074255;28;20063;-57
2022/10/25 01:36:00;;;;;;;14.18;2.90;;;;;;;12.54;100.00;101153.91;5092304;28;20108;-57
2022/10/25 01:38:39;;;;;;;8.50;2.30;;;;;;;12.53;100.00;101156.69;5092051;28;20035;-55
2022/10/25 01:41:30;;;;;;;7.20;2.38;;;;;;;12.54;100.00;101161.91;5086254;28;20028;-57
2022/10/25 01:44:28;;;;;;;13.13;2.70;;;;;;;12.54;100.00;101161.91;5086261;28;20044;-57
2022/10/25 01:47:01;;;;;;;10.90;2.25;;;;;;;12.54;100.00;101158.38;5089863;28;20089;-57
2022/10/25 01:49:49;;;;;;;11.50;2.28;;;;;;;12.55;100.00;101158.25;5084450;28;20513;-55
2022/10/25 01:52:20;;;;;;;15.40;2.67;;;;;;;12.55;100.00;101165.41;5090468;28;20502;-57
2022/10/25 01:54:46;;;;;;;14.52;2.88;;;;;;;12.54;100.00;101166.38;5100744;28;20028;-56
2022/10/25 01:57:30;;;;;;;11.07;2.17;;;;;;;12.53;100.00;101168.19;5091960;28;20379;-56
2022/10/25 02:00:06;;;;;;;17.02;2.83;;;;;;;12.53;100.00;101162.88;5079234;28;20039;-56
2022/10/25 02:03:00;;;;;;;15.23;3.30;;;;;;;12.54;100.00;101163.72;5091697;28;20035;-56
2022/10/25 02:05:34;;;;;;;13.93;3.03;;;;;;;12.49;100.00;101158.75;5090821;28;20027;-57
2022/10/25 02:08:17;;;;;;;12.32;2.83;;;;;;;12.50;100.00;101165.78;5096878;28;20024;-57
2022/10/25 02:10:52;;;;;;;13.45;2.65;;;;;;;12.48;100.00;101166.88;5090637;28;20039;-56
2022/10/25 02:13:29;;;;;;;16.33;2.65;;;;;;;12.51;100.00;101171.97;5092632;28;20073;-56
2022/10/25 02:16:09;;;;;;;13.70;2.63;;;;;;;12.46;100.00;101167.00;5091491;28;20048;-57
2022/10/25 02:18:38;;;;;;;11.13;2.35;;;;;;;12.49;100.00;101174.75;5091362;28;20108;-56
2022/10/25 02:21:05;;;;;;;6.20;2.83;;;;;;;12.48;100.00;101175.72;5081017;28;20055;-57
2022/10/25 02:23:34;;;;;;;11.35;2.70;;;;;;;12.48;100.00;101178.38;5090805;28;20028;-56
2022/10/25 02:26:01;;;;;;;13.43;2.75;;;;;;;12.46;100.00;101169.66;5091186;28;20537;-54
2022/10/25 02:28:28;;;;;;;11.32;2.47;;;;;;;12.48;100.00;101177.53;5074047;28;20035;-56
2022/10/25 02:30:56;;;;;;;11.45;2.47;;;;;;;12.45;100.00;101172.44;5088583;28;20030;-55
2022/10/25 02:33:21;;;;;;;15.50;2.90;;;;;;;12.44;100.00;101174.28;5073943;28;20032;-55
2022/10/25 02:36:08;;;;;;;7.35;2.47;;;;;;;12.46;100.00;101182.97;5092020;28;20031;-54
2022/10/25 02:38:33;;;;;;;15.55;2.88;;;;;;;12.44;100.00;101173.41;5091484;28;20492;-55
2022/10/25 02:41:01;;;;;;;8.63;2.60;;;;;;;12.41;100.00;101182.50;5091630;28;20103;-56
2022/10/25 02:43:26;;;;;;;12.70;3.00;;;;;;;12.38;100.00;101183.56;5091872;28;20028;-56
2022/10/25 02:45:52;;;;;;;14.25;3.33;;;;;;;12.39;100.00;101179.97;5093586;28;20197;-56
2022/10/25 02:48:17;;;;;;;9.00;2.35;;;;;;;12.39;100.00;101190.63;5095596;28;20044;-56
2022/10/25 02:50:42;;;;;;;11.45;2.42;;;;;;;12.38;100.00;101191.56;5095498;28;20103;-56
2022/10/25 02:53:08;;;;;;;7.28;2.38;;;;;;;12.37;100.00;101200.56;5098250;28;20028;-55
2022/10/25 02:55:33;;;;;;;13.68;2.72;;;;;;;12.35;100.00;101196.28;5098285;28;20103;-57
2022/10/25 02:57:58;;;;;;;13.10;2.67;;;;;;;12.34;100.00;101198.13;5100849;28;20062;-57
2022/10/25 03:00:23;;;;;;;12.68;2.58;;;;;;;12.36;100.00;101204.16;5094337;28;20043;-56
2022/10/25 03:02:49;;;;;;;10.18;2.95;;;;;;;12.33;100.00;101207.06;5077333;28;20380;-57
2022/10/25 03:05:14;;;;;;;9.48;2.35;;;;;;;12.35;100.00;101202.47;5077625;28;20036;-56
2022/10/25 03:07:39;;;;;;;11.20;3.13;;;;;;;12.34;100.00;101199.91;5094970;28;20024;-56
2022/10/25 03:10:05;;;;;;;9.07;2.53;;;;;;;12.32;100.00;101202.72;5095488;28;20111;-56
2022/10/25 03:12:31;;;;;;;13.25;2.75;;;;;;;12.32;100.00;101208.06;5095035;28;20027;-56
2022/10/25 03:14:56;;;;;;;13.93;2.70;;;;;;;12.31;100.00;101201.03;5095038;28;20036;-56
2022/10/25 03:17:21;;;;;;;13.15;2.78;;;;;;;12.27;100.00;101196.03;5092717;28;20102;-56
2022/10/25 03:19:47;;;;;;;8.73;2.15;;;;;;;12.28;100.00;101203.91;5094981;28;20032;-57
2022/10/25 03:22:12;;;;;;;11.07;2.40;;;;;;;12.28;100.00;101213.72;5101984;28;20016;-56
2022/10/25 03:24:37;;;;;;;5.88;2.00;;;;;;;12.26;100.00;101218.31;5076979;28;20115;-55
2022/10/25 03:27:03;;;;;;;9.30;2.42;;;;;;;12.24;100.00;101218.47;5093503;28;20129;-57
2022/10/25 03:29:28;;;;;;;8.50;2.35;;;;;;;12.22;100.00;101217.69;5095161;28;20074;-56
2022/10/25 03:31:53;;;;;;;13.93;2.80;;;;;;;12.20;100.00;101228.47;5091891;28;20059;-56
2022/10/25 03:34:18;;;;;;;10.50;2.22;;;;;;;12.17;100.00;101227.88;5089116;28;20028;-56
2022/10/25 03:36:44;;;;;;;12.32;2.83;;;;;;;12.17;100.00;101236.72;5094230;28;20024;-56
2022/10/25 03:39:09;;;;;;;10.60;2.50;;;;;;;12.14;100.00;101239.63;5077908;28;20028;-56
2022/10/25 03:41:34;;;;;;;7.43;2.38;;;;;;;12.14;100.00;101236.09;5094922;28;20879;-55
2022/10/25 03:44:00;;;;;;;10.07;2.80;;;;;;;12.13;100.00;101245.06;5095084;28;20038;-55
2022/10/25 03:46:25;;;;;;;6.15;2.42;;;;;;;12.10;100.00;101250.63;5075315;28;20028;-55
2022/10/25 03:48:50;;;;;;;6.72;2.45;;;;;;;12.09;100.00;101247.13;5094552;28;20063;-57
2022/10/25 03:51:15;;;;;;;8.57;2.67;;;;;;;12.06;100.00;101249.13;5094835;28;20086;-56
2022/10/25 03:53:41;;;;;;;11.73;2.60;;;;;;;12.06;100.00;101249.13;5094203;28;20016;-56
2022/10/25 03:56:06;;;;;;;13.07;2.63;;;;;;;12.04;100.00;101251.94;5093964;28;20110;-56
2022/10/25 03:58:32;;;;;;;9.43;2.83;;;;;;;12.04;100.00;101262.59;5099518;28;20043;-56
2022/10/25 04:00:58;;;;;;;11.10;2.72;;;;;;;12.03;100.00;101258.22;5090629;28;20035;-56
2022/10/25 04:03:24;;;;;;;9.77;2.47;;;;;;;12.01;100.00;101265.50;5094469;28;20482;-54
2022/10/25 04:05:49;;;;;;;11.05;2.90;;;;;;;12.02;100.00;101269.81;5095017;28;20073;-57
2022/10/25 04:08:14;;;;;;;8.68;2.70;;;;;;;12.00;100.00;101263.78;5096523;28;20050;-56
2022/10/25 04:10:40;;;;;;;12.35;2.80;;;;;;;12.01;100.00;101260.16;5094399;28;20061;-57
2022/10/25 04:13:05;;;;;;;8.30;2.38;;;;;;;11.99;100.00;101262.06;5093611;28;20024;-56
2022/10/25 04:15:30;;;;;;;8.38;2.65;;;;;;;11.99;100.00;101264.72;5084561;28;20026;-56
2022/10/25 04:17:56;;;;;;;13.15;2.97;;;;;;;11.96;100.00;101263.16;5094698;28;20024;-57
2022/10/25 04:20:21;;;;;;;7.95;2.50;;;;;;;11.93;100.00;101266.06;5094237;28;20040;-57
2022/10/25 04:22:55;;;;;;;8.82;2.85;;;;;;;11.91;100.00;101270.66;5093457;28;20039;-56
2022/10/25 04:25:23;;;;;;;10.43;2.60;;;;;;;11.91;100.00;101275.09;5075449;28;20024;-56
2022/10/25 04:27:48;;;;;;;11.13;2.83;;;;;;;11.89;100.00;101280.53;5094089;28;20422;-56
2022/10/25 04:30:13;;;;;;;11.20;2.85;;;;;;;11.88;100.00;101278.00;5093139;28;20114;-56
2022/10/25 04:32:39;;;;;;;6.32;2.40;;;;;;;11.88;100.00;101280.66;5084128;28;20065;-56
2022/10/25 04:35:04;;;;;;;7.53;2.60;;;;;;;11.87;100.00;101279.78;5089251;28;20012;-57
2022/10/25 04:37:30;;;;;;;7.88;2.92;;;;;;;11.84;100.00;101278.22;5093831;28;20028;-56
2022/10/25 04:39:55;;;;;;;8.95;3.63;;;;;;;11.83;100.00;101278.34;5092806;28;20536;-56
2022/10/25 04:42:20;;;;;;;11.73;3.38;;;;;;;11.83;100.00;101281.00;5094022;28;20024;-57
2022/10/25 04:44:46;;;;;;;10.32;3.25;;;;;;;11.82;100.00;101285.47;5079632;28;20036;-54
2022/10/25 04:47:11;;;;;;;11.80;3.47;;;;;;;11.80;100.00;101276.75;5075296;28;20389;-55
2022/10/25 04:49:36;;;;;;;11.40;3.47;;;;;;;11.80;100.00;101279.41;5074959;28;21028;-55
2022/10/25 04:52:02;;;;;;;9.02;3.28;;;;;;;11.79;100.00;101276.84;5093113;28;20016;-56
2022/10/25 04:54:27;;;;;;;12.15;3.55;;;;;;;11.79;100.00;101282.16;5102892;28;20028;-56
2022/10/25 04:56:52;;;;;;;10.82;3.30;;;;;;;11.72;100.00;101268.47;5093144;28;20032;-57
2022/10/25 04:59:18;;;;;;;7.68;3.28;;;;;;;11.76;100.00;101285.94;5073379;28;20040;-56
2022/10/25 05:01:43;;;;;;;14.15;3.50;;;;;;;11.74;100.00;101279.88;5093549;28;20024;-57
2022/10/25 05:04:08;;;;;;;7.93;2.97;;;;;;;11.75;100.00;101294.03;5093290;28;20016;-56
2022/10/25 05:06:33;;;;;;;10.73;3.40;;;;;;;11.74;100.00;101293.19;5093399;28;20111;-56
2022/10/25 05:08:59;;;;;;;11.10;3.10;;;;;;;11.72;100.00;101296.91;5093082;28;20024;-57
2022/10/25 05:11:24;;;;;;;10.75;3.22;;;;;;;11.71;100.00;101297.84;5095291;28;20035;-56
2022/10/25 05:13:50;;;;;;;11.43;3.25;;;;;;;11.72;100.00;101296.91;5090991;28;20488;-56
2022/10/25 05:16:22;;;;;;;9.68;3.22;;;;;;;11.68;100.00;101298.13;5088399;28;20032;-56
2022/10/25 05:18:55;;;;;;;15.52;3.00;;;;;;;11.68;100.00;101298.94;5088866;28;20039;-56
2022/10/25 05:21:25;;;;;;;11.93;3.22;;;;;;;11.67;100.00;101299.91;5093163;28;20080;-56
2022/10/25 05:23:50;;;;;;;7.22;2.90;;;;;;;11.66;100.00;101316.84;5092386;28;20052;-56
2022/10/25 05:26:18;;;;;;;10.32;3.10;;;;;;;11.64;100.00;101308.97;5093165;28;20028;-57
2022/10/25 05:28:47;;;;;;;12.07;3.17;;;;;;;11.64;100.00;101313.44;5091334;28;20047;-56
2022/10/25 05:31:17;;;;;;;13.45;3.10;;;;;;;11.63;100.00;101315.25;5093203;28;20405;-56
2022/10/25 05:33:46;;;;;;;11.02;2.75;;;;;;;11.61;100.00;101309.19;5087153;28;20051;-57
2022/10/25 05:36:12;;;;;;;;;;;;;;;11.67;100.00;101315.88;5093024;28;20445;-56
2022/10/25 05:38:38;;;;;;;8.52;2.92;;;;;;;11.61;100.00;101319.84;5091820;28;19907;-56
2022/10/25 05:41:04;;;;;;;8.75;3.25;;;;;;;11.61;100.00;101326.97;5091400;28;20143;-56
2022/10/25 05:43:30;;;;;;;12.07;3.35;;;;;;;11.58;100.00;101325.38;5092496;28;20078;-56
2022/10/25 05:46:16;;;;;;;11.00;3.33;;;;;;;11.60;100.00;101333.25;5092816;28;20044;-56
2022/10/25 05:48:43;;;;;;;7.05;3.20;;;;;;;11.56;100.00;101335.28;5091298;28;20127;-57
2022/10/25 05:51:11;;;;;;;9.73;3.63;;;;;;;11.55;100.00;101330.09;5090693;28;20483;-57
2022/10/25 05:53:40;;;;;;;7.95;3.22;;;;;;;11.54;100.00;101337.22;5088057;28;20047;-57
2022/10/25 05:56:05;;;;;;;7.65;4.05;;;;;;;11.54;100.00;101342.53;5087442;28;20039;-57
2022/10/25 05:58:31;;;;;;;11.18;3.63;;;;;;;11.53;100.00;101348.81;5087608;28;20032;-57
2022/10/25 06:00:58;;;;;;;14.93;4.32;;;;;;;11.43;100.00;101327.34;5072846;28;20027;-56
2022/10/25 06:03:23;;;;;;;12.25;4.10;;;;;;;11.51;100.00;101353.41;5091879;28;20028;-56
2022/10/25 06:05:49;;;;;;;10.45;4.00;;;;;;;11.52;100.00;101356.91;5091304;28;20035;-53
2022/10/25 06:08:14;;;;;;;11.30;4.50;;;;;;;11.52;100.00;101355.09;5091247;28;20044;-55
2022/10/25 06:10:39;;;;;;;11.52;4.53;;;;;;;11.55;100.00;101354.88;5090673;28;20038;-56
2022/10/25 06:13:04;;;;;;;14.80;5.40;;;;;;;11.57;100.00;101362.75;5087039;28;20028;-56
2022/10/25 06:15:30;;;;;;;11.95;4.88;;;;;;;11.57;100.00;101365.41;5058278;28;20040;-55
2022/10/25 06:17:55;;;;;;;14.48;5.47;;;;;;;11.57;100.00;101360.06;5090370;28;20035;-55
2022/10/25 06:20:21;;;;;;;12.98;5.35;;;;;;;11.57;100.00;101365.41;5088740;28;20393;-55
2022/10/25 06:22:46;;;;;;;11.38;5.60;;;;;;;11.55;100.00;101376.16;5069433;28;20024;-55
2022/10/25 06:25:11;;;;;;;16.83;6.05;;;;;;;11.58;100.00;101378.59;5089285;28;20051;-56
2022/10/25 06:27:37;;;;;;;12.20;6.00;;;;;;;11.59;100.00;101379.44;5085137;28;20035;-56
2022/10/25 06:30:02;;;;;;;12.95;5.93;;;;;;;11.58;100.00;101378.59;5088043;28;20409;-57
2022/10/25 06:32:27;;;;;;;19.10;5.90;;;;;;;11.58;100.00;101380.41;5085432;28;20036;-56
2022/10/25 06:34:53;;;;;;;15.63;6.03;;;;;;;11.58;100.00;101393.72;5087766;28;20056;-57
2022/10/25 06:37:18;;;;;;;15.85;5.95;;;;;;;11.60;100.00;101389.13;5068685;28;20068;-56
2022/10/25 06:39:44;;;;;;;13.50;5.50;;;;;;;11.59;100.00;101388.28;5086670;28;20036;-54
2022/10/25 06:42:09;;;;;;;12.85;6.00;;;;;;;11.60;100.00;101391.78;5087257;28;20048;-55
2022/10/25 06:44:34;;;;;;;20.30;6.07;;;;;;;11.60;100.00;101389.97;5069268;28;20024;-56
2022/10/25 06:46:59;;;;;;;17.38;6.28;;;;;;;11.61;100.00;101394.34;5088835;28;20048;-56
2022/10/25 06:49:25;;;;;;;16.27;6.85;;;;;;;11.60;100.00;101394.44;5087197;28;20055;-54
2022/10/25 06:51:50;;;;;;;11.18;6.40;;;;;;;11.60;100.00;101392.63;5088694;28;20047;-57
2022/10/25 06:54:16;;;;;;;14.95;6.07;;;;;;;11.61;100.00;101401.47;5070203;28;20107;-56
2022/10/25 06:56:41;;;;;;;11.63;6.78;;;;;;;11.63;100.00;101399.56;5087307;28;20032;-55
2022/10/25 06:59:07;;;;;;;13.98;6.20;;;;;;;11.62;100.00;101401.38;5087130;28;20381;-54
2022/10/25 07:01:32;;;;;;;18.27;6.60;;;;;;;11.63;100.00;101404.88;5086969;28;20039;-55
2022/10/25 07:03:58;;;;;;;15.77;6.43;;;;;;;11.64;100.00;101411.88;5087513;28;20055;-56
2022/10/25 07:06:26;;;;;;;15.07;7.00;;;;;;;11.64;100.00;101407.44;5087430;28;20058;-56
2022/10/25 07:08:57;;;;;;;14.95;6.65;;;;;;;11.64;100.00;101419.84;5088643;28;20027;-56
2022/10/25 07:11:25;;;;;;;20.00;7.18;;;;;;;11.63;100.00;101416.34;5089263;28;20048;-57
2022/10/25 07:13:51;;;;;;;15.65;6.82;;;;;;;11.66;100.00;101428.59;5088185;28;20047;-57
2022/10/25 07:16:18;;;;;;;14.98;7.03;;;;;;;11.70;100.00;101432.72;5089139;28;20036;-57
2022/10/25 07:18:43;;;;;;;16.00;6.47;;;;;;;11.74;100.00;101433.34;5070146;28;20027;-51
2022/10/25 07:21:13;;;;;;;16.60;7.22;;;;;;;11.78;100.00;101432.19;5088733;28;21038;-53
2022/10/25 07:23:41;;;;;;;17.83;7.30;;;;;;;11.81;100.00;101432.81;5087942;28;20024;-57
2022/10/25 07:26:09;;;;;;;11.35;6.75;;;;;;;11.84;100.00;101439.75;5069180;28;20072;-56
2022/10/25 07:28:34;;;;;;;15.82;6.80;;;;;;;11.87;100.00;101441.31;5091042;28;20039;-57
2022/10/25 07:31:00;;;;;;;18.23;6.85;;;;;;;11.92;100.00;101441.84;5086025;28;20385;-56
2022/10/25 07:33:25;;;;;;;13.23;6.97;;;;;;;11.93;100.00;101444.41;5087273;28;20024;-55
2022/10/25 07:35:50;;;;;;;15.30;6.70;;;;;;;11.99;100.00;101448.41;5091652;28;20384;-56
2022/10/25 07:38:16;;;;;;;19.42;6.90;;;;;;;12.01;100.00;101452.69;5093761;28;20036;-57
2022/10/25 07:40:42;;;;;;;14.32;6.38;;;;;;;12.06;100.00;101451.50;5092858;28;20089;-57
2022/10/25 07:43:08;;;;;;;13.38;6.13;;;;;;;12.08;100.00;101452.25;5060558;28;20032;-54
2022/10/25 07:45:34;;;;;;;17.50;6.82;;;;;;;12.11;100.00;101452.03;5078463;28;20494;-52
2022/10/25 07:47:59;;;;;;;12.02;6.45;;;;;;;12.14;100.00;101451.78;5073529;28;20062;-54
2022/10/25 07:50:24;;;;;;;17.38;6.68;;;;;;;12.14;100.00;101457.97;5089105;28;20012;-51
2022/10/25 07:52:50;;;;;;;15.32;6.88;;;;;;;12.18;100.00;101462.09;5091739;28;20036;-55
2022/10/25 07:55:15;;;;;;;11.77;6.35;;;;;;;12.20;100.00;101461.97;5084545;28;20029;-54
2022/10/25 07:57:40;;;;;;;17.92;6.60;;;;;;;12.25;100.00;101464.31;5088430;28;20409;-54
2022/10/25 08:00:08;;;;;;;21.42;6.90;;;;;;;12.26;100.00;101463.34;5084404;28;20126;-54
2022/10/25 08:02:33;;;;;;;17.13;7.07;;;;;;;12.32;100.00;101465.56;5071766;28;20118;-54
2022/10/25 08:04:59;;;;;;;12.70;7.18;;;;;;;12.34;100.00;101472.47;5091490;28;20518;-55
2022/10/25 08:07:24;;;;;;;15.38;6.95;;;;;;;12.36;100.00;101469.72;5091187;28;20481;-55
2022/10/25 08:09:50;;;;;;;14.48;7.45;;;;;;;12.39;100.00;101469.47;5091820;28;20055;-55
2022/10/25 08:12:15;;;;;;;14.57;7.28;;;;;;;12.44;100.00;101477.13;5087596;28;20466;-53
2022/10/25 08:14:40;;;;;;;16.52;6.90;;;;;;;12.46;100.00;101480.53;5068851;28;20033;-54
2022/10/25 08:17:06;;;;;;;17.80;7.35;;;;;;;12.47;100.00;101483.06;5094521;28;20043;-55
2022/10/25 08:19:31;;;;;;;16.48;6.72;;;;;;;12.51;100.00;101481.03;5092881;28;20404;-56
2022/10/25 08:21:56;;;;;;;16.40;7.20;;;;;;;12.55;100.00;101485.16;5092220;28;20055;-54
2022/10/25 08:24:21;;;;;;;15.55;7.00;;;;;;;12.58;100.00;101480.44;5088651;28;20040;-54
2022/10/25 08:26:47;;;;;;;19.73;7.15;;;;;;;12.60;100.00;101483.00;5091821;28;20039;-52
2022/10/25 08:29:12;;;;;;;15.73;6.72;;;;;;;12.65;100.00;101478.16;5077361;28;20060;-54
2022/10/25 08:31:37;;;;;;;16.35;6.60;;;;;;;12.71;100.00;101479.53;5088069;28;20028;-55
2022/10/25 08:34:03;;;;;;;16.77;6.80;;;;;;;12.77;100.00;101476.38;5071236;28;20028;-55
2022/10/25 08:36:28;;;;;;;18.63;6.70;;;;;;;12.80;100.00;101475.31;5091495;28;20093;-55
2022/10/25 08:38:53;;;;;;;11.10;5.97;;;;;;;12.86;100.00;101482.84;5090371;28;20031;-50
2022/10/25 08:41:31;;;;;;;16.90;6.63;;;;;;;12.86;100.00;101475.69;5090977;28;20486;-52
2022/10/25 08:43:59;;;;;;;14.15;5.68;;;;;;;12.98;100.00;101487.25;5081355;28;20032;-54
2022/10/25 08:46:52;;;;;;;15.33;6.13;;;;;;;13.04;100.00;101489.44;5087533;28;20178;-55
2022/10/25 08:49:51;;;;;;;15.88;6.22;;;;;;;13.10;100.00;101488.97;5082210;28;20053;-54
2022/10/25 08:52:33;;;;;;;18.13;5.40;;;;;;;13.17;100.00;101497.34;5086153;28;20036;-55
2022/10/25 08:55:01;;;;;;;12.32;5.10;;;;;;;13.22;100.00;101500.53;5090530;28;20031;-51
2022/10/25 08:57:31;;;;;;;15.00;5.32;;;;;;;13.27;100.00;101492.13;5086946;28;20111;-50
2022/10/25 09:00:09;;;;;;;12.45;5.28;;;;;;;13.32;100.00;101498.88;5087797;28;20024;-50
2022/10/25 09:02:45;;;;;;;14.88;5.40;;;;;;;13.42;100.00;101503.47;5084812;28;20053;-52
2022/10/25 09:05:39;;;;;;;14.45;5.55;;;;;;;13.51;100.00;101498.25;5088678;28;20036;-51
2022/10/25 09:08:35;;;;;;;13.55;5.28;;;;;;;13.59;100.00;101504.81;5063086;28;20028;-52
2022/10/25 09:11:28;;;;;;;14.70;5.45;;;;;;;13.61;100.00;101508.22;5090496;28;20142;-49
2022/10/25 09:14:31;;;;;;;11.70;4.93;;;;;;;13.66;100.00;101511.38;5089433;28;20028;-50
2022/10/25 09:17:11;;;;;;;14.27;4.82;;;;;;;13.74;100.00;101516.09;5089065;28;20028;-52
2022/10/25 09:20:04;;;;;;;11.00;4.93;;;;;;;13.80;100.00;101515.63;5078118;28;20048;-51
2022/10/25 09:22:51;;;;;;;11.98;4.57;;;;;;;13.81;100.00;101520.00;5084151;28;20036;-51
2022/10/25 09:25:32;;;;;;;10.23;4.32;;;;;;;13.91;100.00;101522.78;5090921;28;20057;-52
2022/10/25 09:28:00;;;;;;;12.35;4.72;;;;;;;13.92;100.00;101519.97;5100197;28;20039;-51
2022/10/25 09:30:28;;;;;;;11.75;4.00;;;;;;;13.99;100.00;101533.69;5091382;28;20028;-51
2022/10/25 09:32:59;;;;;;;14.82;4.80;;;;;;;14.02;100.00;101531.63;5083129;28;20111;-50
2022/10/25 09:35:39;;;;;;;8.93;4.45;;;;;;;14.06;100.00;101529.56;5091383;28;20110;-50
2022/10/25 09:38:13;;;;;;;11.48;4.32;;;;;;;14.07;99.74;101539.25;5090477;28;20036;-53
2022/10/25 09:40:48;;;;;;;12.02;4.15;;;;;;;14.09;99.75;101540.00;5091452;28;20123;-52
2022/10/25 09:43:20;;;;;;;8.43;3.70;;;;;;;14.08;99.62;101535.63;5072959;28;20024;-53
2022/10/25 09:45:51;;;;;;;9.73;3.72;;;;;;;14.13;99.45;101535.25;5082152;28;20492;-51
2022/10/25 09:48:30;;;;;;;13.60;3.85;;;;;;;14.14;98.89;101543.16;5087803;28;20032;-53
2022/10/25 09:51:08;;;;;;;11.07;3.78;;;;;;;14.14;98.55;101545.81;5085230;28;20058;-50
2022/10/25 09:53:39;;;;;;;12.02;3.47;;;;;;;14.16;98.75;101543.88;5091419;28;20028;-50
2022/10/25 09:56:04;;;;;;;8.27;3.45;;;;;;;14.18;99.57;101541.91;5089631;28;20036;-50
2022/10/25 09:58:37;;;;;;;11.10;3.35;;;;;;;14.25;98.75;101550.28;5091703;28;20036;-53
2022/10/25 10:01:16;;;;;;;8.60;4.15;;;;;;;14.25;97.89;101547.63;5071579;28;20592;-48
2022/10/25 10:03:42;;;;;;;8.90;3.00;;;;;;;14.27;98.23;101544.81;5086504;28;20380;-53
2022/10/25 10:06:25;;;;;;;13.20;3.20;;;;;;;14.23;97.70;101545.06;5077980;28;20052;-50
2022/10/25 10:08:56;;;;;;;13.63;3.30;;;;;;;14.27;95.99;101556.34;5085011;28;20355;-50
2022/10/25 10:11:22;;;;;;;11.85;3.42;;;;;;;14.32;97.09;101558.66;5067388;28;20056;-49
2022/10/25 10:13:59;;;;;;;12.38;3.17;;;;;;;14.35;97.36;101553.06;5085574;28;20051;-49
2022/10/25 10:16:34;;;;;;;10.32;3.20;;;;;;;14.36;96.25;101562.78;5064005;28;20028;-49
2022/10/25 10:19:20;;;;;;;11.30;2.92;;;;;;;14.38;96.50;101559.00;5066191;28;20028;-52
2022/10/25 10:22:13;;;;;;;13.68;3.45;;;;;;;14.39;96.07;101567.91;5086571;28;20039;-49
2022/10/25 10:24:41;;;;;;;12.38;3.63;;;;;;;14.35;95.23;101569.94;5087145;28;20493;-52
2022/10/25 10:27:09;;;;;;;8.88;2.90;;;;;;;14.34;96.05;101565.59;5079454;28;20109;-49
2022/10/25 10:29:37;;;;;;;15.05;3.38;;;;;;;14.37;96.22;101567.16;5086722;28;20036;-49
2022/10/25 10:32:23;;;;;;;9.88;2.58;;;;;;;14.41;96.13;101568.59;5085560;28;20093;-51
2022/10/25 10:34:54;;;;;;;11.88;3.33;;;;;;;14.37;95.77;101568.00;5083020;28;20107;-49
2022/10/25 10:37:25;;;;;;;9.15;3.08;;;;;;;14.36;95.56;101568.97;5089984;28;20669;-51
2022/10/25 10:40:00;;;;;;;10.75;3.30;;;;;;;14.41;95.64;101568.59;5087920;28;20032;-51
2022/10/25 10:42:36;;;;;;;10.25;3.22;;;;;;;14.40;95.43;101567.72;5085329;28;20028;-49
2022/10/25 10:45:07;;;;;;;14.65;3.72;;;;;;;14.46;95.65;101581.59;5090738;28;20081;-52
2022/10/25 10:47:34;;;;;;;10.93;3.40;;;;;;;14.48;95.58;101575.13;5082815;28;20024;-51
2022/10/25 10:50:01;;;;;;;9.13;3.50;;;;;;;14.52;95.03;101579.28;5087246;28;20078;-52
2022/10/25 10:52:38;;;;;;;11.43;2.90;;;;;;;14.64;95.72;101582.81;5086406;28;20071;-48
2022/10/25 10:55:14;;;;;;;11.93;3.22;;;;;;;14.72;95.16;101577.66;5071781;28;20398;-51
2022/10/25 10:57:39;;;;;;;10.70;3.20;;;;;;;14.78;94.57;101570.97;5089180;28;20084;-50
2022/10/25 11:00:05;;;;;;;13.07;3.00;;;;;;;14.89;95.47;101559.34;5089235;28;20036;-50
2022/10/25 11:02:36;;;;;;;11.73;2.88;;;;;;;14.93;93.08;101569.66;5088680;28;20481;-50
2022/10/25 11:05:22;;;;;;;10.02;2.92;;;;;;;15.00;93.19;101567.34;5065393;28;20058;-49
2022/10/25 11:08:15;;;;;;;11.30;3.10;;;;;;;14.99;92.09;101571.84;5091348;28;20474;-52
2022/10/25 11:10:41;;;;;;;10.88;3.28;;;;;;;15.02;92.02;101569.88;5091021;28;20123;-51
2022/10/25 11:13:10;;;;;;;7.38;3.15;;;;;;;14.97;90.67;101571.13;5092936;28;20107;-49
2022/10/25 11:16:00;;;;;;;8.35;2.65;;;;;;;15.01;91.67;101577.06;5093273;28;20048;-50
2022/10/25 11:18:59;;;;;;;7.72;2.95;;;;;;;15.04;92.15;101567.91;5090354;28;20035;-50
2022/10/25 11:21:52;;;;;;;10.32;3.00;;;;;;;15.11;92.49;101567.28;5087691;28;20052;-52
2022/10/25 11:24:26;;;;;;;10.73;2.88;;;;;;;15.21;91.85;101574.56;5093887;28;20035;-53
2022/10/25 11:27:19;;;;;;;10.23;2.60;;;;;;;15.21;90.97;101566.53;5093395;28;20335;-51